Time;durP1;ratioP1;P1;durP2;ratioP2;P2;SDS_P1;SDS_P2;PMS_P1;PMS_P2;Temp;Humidity;BMP_temperature;BMP_pressure;BME280_temperature;BME280_humidity;BME280_pressure;Samples;Min_cycle;Max_cycle;Signal;HPM_P1;HPM_P2
2022/06/18 00:02:11;;;;;;;12.13;2.60;;;19.20;98.80;;;;;;6001361;29;20279;-68
2022/06/18 00:05:20;;;;;;;8.68;2.95;;;19.30;99.10;;;;;;6002454;29;20289;-68
2022/06/18 00:08:29;;;;;;;10.95;2.65;;;19.20;99.10;;;;;;6001653;29;20312;-68
2022/06/18 00:14:57;;;;;;;10.68;2.55;;;19.30;99.50;;;;;;6000694;29;20287;-68
2022/06/18 00:18:03;;;;;;;7.03;2.30;;;19.20;99.90;;;;;;6001055;29;20494;-68
2022/06/18 00:21:16;;;;;;;4.05;2.45;;;19.20;99.90;;;;;;6001193;29;20307;-68
2022/06/18 00:24:22;;;;;;;6.80;2.45;;;19.10;99.90;;;;;;6001064;29;20306;-68
2022/06/18 00:27:27;;;;;;;8.38;2.25;;;19.10;99.90;;;;;;6001121;29;20311;-68
2022/06/18 00:30:33;;;;;;;5.85;2.22;;;19.10;99.90;;;;;;6000161;29;20303;-68
2022/06/18 00:33:40;;;;;;;5.82;2.20;;;19.10;99.90;;;;;;6000892;29;20492;-68
2022/06/18 00:36:48;;;;;;;4.72;2.35;;;19.00;99.90;;;;;;6001057;29;20472;-69
2022/06/18 00:39:53;;;;;;;3.28;2.22;;;19.10;99.90;;;;;;6000523;29;20306;-69
2022/06/18 00:43:00;;;;;;;2.58;2.40;;;18.90;99.90;;;;;;6001374;29;20307;-69
2022/06/18 00:46:12;;;;;;;2.72;2.53;;;18.90;99.90;;;;;;6005399;29;20445;-69
2022/06/18 00:49:24;;;;;;;2.42;2.28;;;18.80;99.90;;;;;;6005001;29;20307;-69
2022/06/18 00:52:40;;;;;;;3.28;2.28;;;18.80;99.90;;;;;;6004732;29;20467;-69
2022/06/18 00:55:51;;;;;;;2.35;2.22;;;18.80;99.90;;;;;;5989082;29;20278;-68
2022/06/18 00:59:01;;;;;;;2.45;2.35;;;18.60;99.90;;;;;;6004179;29;20312;-69
2022/06/18 01:02:22;;;;;;;4.97;2.40;;;18.50;99.90;;;;;;6004123;29;20275;-68
2022/06/18 01:05:35;;;;;;;2.40;2.30;;;18.50;99.90;;;;;;6003605;29;20294;-68
2022/06/18 01:08:44;;;;;;;2.95;2.33;;;18.50;99.90;;;;;;6003341;29;20304;-69
2022/06/18 01:11:51;;;;;;;2.85;2.67;;;18.50;99.90;;;;;;5988811;29;20504;-69
2022/06/18 01:15:04;;;;;;;5.45;2.50;;;18.30;99.90;;;;;;6004095;29;20303;-68
2022/06/18 01:18:15;;;;;;;2.85;2.70;;;18.30;99.90;;;;;;5988522;29;20303;-68
2022/06/18 01:21:28;;;;;;;2.63;2.30;;;18.40;99.90;;;;;;5987914;29;20310;-69
2022/06/18 01:24:39;;;;;;;2.70;2.38;;;18.30;99.90;;;;;;5988318;29;20307;-69
2022/06/18 01:27:46;;;;;;;3.47;2.90;;;18.30;99.90;;;;;;5987981;29;20311;-69
2022/06/18 01:30:59;;;;;;;2.55;2.45;;;18.20;99.90;;;;;;5988265;29;20303;-68
2022/06/18 01:34:06;;;;;;;3.38;3.00;;;18.10;99.90;;;;;;5987525;29;20306;-69
2022/06/18 01:37:13;;;;;;;9.43;2.90;;;18.10;99.90;;;;;;6003779;29;20280;-68
2022/06/18 01:40:28;;;;;;;2.75;2.65;;;18.10;99.90;;;;;;5987789;29;20286;-68
2022/06/18 01:43:34;;;;;;;3.10;2.90;;;18.00;99.90;;;;;;6002581;29;20303;-69
2022/06/18 01:46:42;;;;;;;2.65;2.45;;;18.00;99.90;;;;;;5987931;29;20448;-69
2022/06/18 01:49:57;;;;;;;5.10;2.88;;;18.00;99.90;;;;;;5987639;29;20610;-69
2022/06/18 01:53:08;;;;;;;3.08;2.70;;;17.90;99.90;;;;;;6003566;29;20308;-69
2022/06/18 01:56:19;;;;;;;2.90;2.80;;;17.80;99.90;;;;;;6002609;29;20307;-69
2022/06/18 01:59:28;;;;;;;2.70;2.58;;;17.80;99.90;;;;;;6002415;29;20442;-68
2022/06/18 02:02:34;;;;;;;3.83;2.58;;;17.70;99.90;;;;;;5986968;29;20300;-68
2022/06/18 02:05:40;;;;;;;3.10;2.75;;;17.60;99.90;;;;;;5987692;29;20279;-69
2022/06/18 02:08:45;;;;;;;3.00;2.90;;;17.50;99.90;;;;;;6003059;29;20315;-69
2022/06/18 02:11:52;;;;;;;2.90;2.80;;;17.30;99.90;;;;;;6003505;29;20610;-69
2022/06/18 02:15:01;;;;;;;3.05;2.90;;;17.20;99.90;;;;;;6001571;29;20287;-69
2022/06/18 02:18:11;;;;;;;2.85;2.65;;;17.40;99.90;;;;;;5986972;29;20601;-69
2022/06/18 02:21:21;;;;;;;2.40;2.30;;;17.30;99.90;;;;;;6003546;29;20303;-69
2022/06/18 02:24:28;;;;;;;3.10;2.80;;;17.30;99.90;;;;;;5986692;29;20307;-69
2022/06/18 02:27:36;;;;;;;2.80;2.70;;;17.20;99.90;;;;;;5986692;29;20299;-69
2022/06/18 02:30:41;;;;;;;2.78;2.58;;;17.10;99.90;;;;;;6003268;29;20302;-69
2022/06/18 02:33:49;;;;;;;3.38;2.53;;;17.10;99.90;;;;;;6002632;29;20339;-69
2022/06/18 02:36:55;;;;;;;2.78;2.67;;;17.00;99.90;;;;;;6003412;29;20368;-69
2022/06/18 02:40:03;;;;;;;3.55;2.35;;;17.10;99.90;;;;;;5985932;29;20304;-69
2022/06/18 02:43:12;;;;;;;7.60;3.00;;;17.10;99.90;;;;;;6001195;29;20324;-69
2022/06/18 02:46:18;;;;;;;2.47;2.38;;;17.10;99.90;;;;;;6002104;29;20287;-69
2022/06/18 02:49:23;;;;;;;2.38;2.38;;;17.00;99.90;;;;;;6002624;29;20308;-68
2022/06/18 02:52:33;;;;;;;3.17;2.33;;;17.10;99.90;;;;;;6000629;29;20490;-69
2022/06/18 02:55:42;;;;;;;3.90;2.35;;;17.00;99.90;;;;;;6001874;29;20279;-69
2022/06/18 02:58:50;;;;;;;4.30;2.80;;;17.00;99.90;;;;;;6001326;29;20303;-68
2022/06/18 03:01:56;;;;;;;2.78;2.67;;;17.00;99.90;;;;;;6001473;29;20275;-68
2022/06/18 03:05:02;;;;;;;2.60;2.50;;;16.90;99.90;;;;;;5983870;29;20375;-69
2022/06/18 03:08:10;;;;;;;2.53;2.42;;;16.90;99.90;;;;;;5985896;29;20303;-69
2022/06/18 03:14:41;;;;;;;2.78;2.70;;;16.90;99.90;;;;;;6001761;29;20303;-68
2022/06/18 03:17:47;;;;;;;2.90;2.80;;;16.80;99.90;;;;;;6002085;29;20302;-69
2022/06/18 03:21:05;;;;;;;2.40;2.30;;;16.90;99.90;;;;;;5985338;29;20306;-67
2022/06/18 03:24:11;;;;;;;2.45;2.45;;;17.00;99.90;;;;;;6000914;29;20303;-68
2022/06/18 03:27:18;;;;;;;3.65;2.67;;;17.10;99.90;;;;;;6001566;29;20278;-68
2022/06/18 03:30:30;;;;;;;2.60;2.50;;;17.10;99.90;;;;;;6000909;29;20295;-68
2022/06/18 03:33:35;;;;;;;2.90;2.70;;;17.10;99.90;;;;;;6001576;29;20509;-68
2022/06/18 03:36:41;;;;;;;3.30;2.90;;;17.10;99.90;;;;;;6001055;29;20272;-68
2022/06/18 03:39:46;;;;;;;2.47;2.47;;;17.00;99.90;;;;;;6001662;29;20593;-68
2022/06/18 03:42:53;;;;;;;2.92;2.72;;;17.00;99.90;;;;;;5985051;29;20594;-68
2022/06/18 03:46:05;;;;;;;2.80;2.70;;;16.90;99.90;;;;;;5985714;29;20282;-68
2022/06/18 03:49:14;;;;;;;2.97;2.88;;;16.90;99.90;;;;;;5985090;29;20303;-68
2022/06/18 03:52:20;;;;;;;3.92;2.92;;;16.90;99.90;;;;;;5984838;29;20303;-68
2022/06/18 03:55:26;;;;;;;3.90;3.05;;;16.90;99.90;;;;;;5985571;29;20283;-68
2022/06/18 03:58:31;;;;;;;3.05;2.90;;;16.90;99.90;;;;;;5999967;29;20398;-68
2022/06/18 04:01:40;;;;;;;2.97;2.88;;;16.90;99.90;;;;;;6000428;29;20282;-68
2022/06/18 04:04:48;;;;;;;3.03;3.03;;;17.00;99.90;;;;;;5985026;29;20302;-68
2022/06/18 04:07:55;;;;;;;3.15;3.05;;;16.90;99.90;;;;;;5984721;29;20585;-68
2022/06/18 04:11:22;;;;;;;3.33;3.15;;;16.90;99.90;;;;;;5985061;29;20305;-68
2022/06/18 04:14:27;;;;;;;3.22;3.22;;;16.80;99.90;;;;;;6000219;29;20315;-68
2022/06/18 04:18:01;;;;;;;3.00;3.00;;;16.90;99.90;;;;;;5985413;29;20302;-68
2022/06/18 04:21:06;;;;;;;2.80;2.80;;;16.90;99.90;;;;;;5989450;29;20302;-69
2022/06/18 04:24:15;;;;;;;3.55;3.25;;;16.90;99.90;;;;;;6004319;29;20302;-68
2022/06/18 04:27:26;;;;;;;5.97;3.50;;;16.90;99.90;;;;;;6004365;29;20303;-68
2022/06/18 04:30:33;;;;;;;3.25;3.25;;;16.90;99.90;;;;;;6004540;29;20279;-68
2022/06/18 04:33:45;;;;;;;3.38;3.28;;;16.90;99.90;;;;;;5989016;29;20312;-69
2022/06/18 04:37:14;;;;;;;3.50;3.50;;;17.00;99.90;;;;;;6002242;29;20278;-69
2022/06/18 04:40:34;;;;;;;3.90;3.60;;;16.90;99.90;;;;;;6005307;29;20468;-69
2022/06/18 04:44:20;;;;;;;3.53;3.53;;;16.90;99.90;;;;;;6004977;29;20303;-68
2022/06/18 04:47:42;;;;;;;4.30;4.20;;;16.90;99.90;;;;;;6003847;29;20302;-69
2022/06/18 04:50:50;;;;;;;4.55;4.45;;;16.90;99.90;;;;;;5989312;29;20275;-68
2022/06/18 04:53:56;;;;;;;4.65;4.55;;;16.90;99.90;;;;;;5988317;29;20302;-68
2022/06/18 04:57:04;;;;;;;6.95;4.32;;;17.00;99.90;;;;;;6003613;29;20461;-68
2022/06/18 05:00:13;;;;;;;4.97;4.63;;;17.00;99.90;;;;;;6003833;29;20279;-68
2022/06/18 05:03:42;;;;;;;5.18;4.97;;;17.10;99.90;;;;;;6004667;29;20302;-68
2022/06/18 05:07:24;;;;;;;5.40;5.20;;;17.10;99.90;;;;;;5958710;29;20334;-68
2022/06/18 05:10:47;;;;;;;10.10;6.88;;;17.20;99.90;;;;;;6004911;29;20550;-68
2022/06/18 05:14:04;;;;;;;5.28;4.97;;;17.20;99.90;;;;;;5988097;29;20311;-67
2022/06/18 05:17:20;;;;;;;6.00;5.63;;;17.10;99.90;;;;;;6003940;29;20504;-68
2022/06/18 05:20:28;;;;;;;5.70;5.40;;;17.20;99.90;;;;;;5988733;29;20307;-68
2022/06/18 05:23:38;;;;;;;5.70;5.50;;;17.20;99.90;;;;;;5988310;29;20315;-68
2022/06/18 05:26:49;;;;;;;7.05;6.45;;;17.10;99.90;;;;;;6003316;29;20457;-68
2022/06/18 05:29:54;;;;;;;6.05;5.72;;;17.10;99.90;;;;;;5987616;29;20310;-68
2022/06/18 05:33:04;;;;;;;6.20;5.90;;;17.20;99.90;;;;;;5987711;29;20311;-68
2022/06/18 05:36:19;;;;;;;6.72;6.28;;;17.20;99.90;;;;;;5988137;29;20299;-68
2022/06/18 05:39:30;;;;;;;6.38;6.07;;;17.20;99.90;;;;;;5987603;29;20307;-68
2022/06/18 05:42:36;;;;;;;6.90;6.50;;;17.20;99.90;;;;;;5987673;29;20302;-67
2022/06/18 05:45:43;;;;;;;7.25;6.82;;;17.20;99.90;;;;;;5987503;29;20283;-68
2022/06/18 05:48:49;;;;;;;7.78;7.18;;;17.10;99.90;;;;;;5987534;29;20517;-68
2022/06/18 05:51:54;;;;;;;7.55;7.07;;;17.30;99.90;;;;;;6002798;29;20460;-68
2022/06/18 05:55:02;;;;;;;7.28;6.68;;;17.20;99.90;;;;;;5987523;29;20491;-68
2022/06/18 05:58:22;;;;;;;7.70;7.10;;;17.20;99.90;;;;;;6002099;29;20307;-68
2022/06/18 06:01:30;;;;;;;6.97;6.63;;;17.20;99.90;;;;;;5987621;29;20279;-68
2022/06/18 06:04:39;;;;;;;8.52;7.88;;;17.20;99.90;;;;;;5987049;29;20312;-68
2022/06/18 06:07:45;;;;;;;7.55;7.03;;;17.30;99.90;;;;;;5987246;29;20303;-67
2022/06/18 06:14:17;;;;;;;7.82;7.32;;;17.30;99.90;;;;;;6002921;29;20320;-68
2022/06/18 06:17:25;;;;;;;7.80;7.15;;;17.30;99.90;;;;;;6001974;29;20283;-67
2022/06/18 06:20:33;;;;;;;7.88;7.32;;;17.30;99.90;;;;;;6003079;29;20311;-68
2022/06/18 06:23:38;;;;;;;7.75;7.25;;;17.40;99.90;;;;;;6003029;29;20307;-68
2022/06/18 06:26:44;;;;;;;7.63;7.13;;;17.30;99.90;;;;;;6003314;29;20274;-68
2022/06/18 06:29:49;;;;;;;8.07;7.35;;;17.20;99.90;;;;;;6002705;29;20489;-68
2022/06/18 06:32:55;;;;;;;7.65;7.25;;;17.40;99.90;;;;;;6002484;29;20573;-67
2022/06/18 06:36:00;;;;;;;7.60;7.00;;;17.40;99.90;;;;;;6002971;29;20275;-68
2022/06/18 06:39:05;;;;;;;8.68;7.88;;;17.40;99.90;;;;;;6002010;29;20303;-68
2022/06/18 06:42:12;;;;;;;8.77;8.10;;;17.40;99.90;;;;;;6001438;29;20283;-67
2022/06/18 06:45:22;;;;;;;8.35;7.68;;;17.30;99.90;;;;;;6001837;29;20471;-68
2022/06/18 06:48:27;;;;;;;8.68;8.07;;;17.30;99.90;;;;;;6002104;29;20307;-68
2022/06/18 06:51:36;;;;;;;8.23;7.55;;;17.30;99.90;;;;;;6002336;29;20279;-68
2022/06/18 06:54:43;;;;;;;8.63;7.97;;;17.20;99.90;;;;;;6002065;29;20311;-68
2022/06/18 06:57:49;;;;;;;7.97;7.47;;;17.20;99.90;;;;;;6002214;29;20302;-67
2022/06/18 07:00:58;;;;;;;8.15;7.60;;;17.30;99.90;;;;;;6002549;29;20271;-67
2022/06/18 07:04:05;;;;;;;7.63;7.13;;;17.30;99.90;;;;;;6001850;29;20619;-68
2022/06/18 07:07:12;;;;;;;7.82;7.22;;;17.20;99.90;;;;;;6001627;29;20586;-68
2022/06/18 07:10:18;;;;;;;7.85;7.38;;;17.30;99.90;;;;;;6002564;29;20275;-67
2022/06/18 07:13:25;;;;;;;7.82;7.32;;;17.30;99.90;;;;;;6001655;29;20303;-67
2022/06/18 07:16:30;;;;;;;7.97;7.47;;;17.40;99.90;;;;;;6002572;29;20568;-68
2022/06/18 07:19:35;;;;;;;7.82;7.10;;;17.40;99.90;;;;;;6001694;29;20316;-68
2022/06/18 07:22:41;;;;;;;8.23;7.60;;;17.40;99.90;;;;;;6001509;29;20314;-67
2022/06/18 07:25:46;;;;;;;8.20;7.60;;;17.40;99.90;;;;;;6001827;29;20290;-68
2022/06/18 07:28:53;;;;;;;7.68;7.28;;;17.30;99.90;;;;;;6001581;29;20303;-68
2022/06/18 07:32:06;;;;;;;8.57;7.88;;;17.40;99.90;;;;;;6002148;29;20463;-68
2022/06/18 07:35:19;;;;;;;8.73;8.02;;;17.50;99.90;;;;;;6001424;29;20296;-68
2022/06/18 07:38:24;;;;;;;8.52;8.02;;;17.40;99.90;;;;;;6001305;29;20303;-68
2022/06/18 07:41:34;;;;;;;9.10;8.40;;;17.40;99.90;;;;;;6001913;29;20279;-68
2022/06/18 07:44:41;;;;;;;9.73;9.02;;;17.40;99.90;;;;;;6001446;29;20307;-68
2022/06/18 07:47:46;;;;;;;10.23;9.43;;;17.50;99.90;;;;;;6001311;29;20307;-68
2022/06/18 07:50:52;;;;;;;10.15;9.25;;;17.40;99.90;;;;;;6001358;29;20279;-68
2022/06/18 07:53:57;;;;;;;10.40;9.40;;;17.50;99.90;;;;;;6000829;29;20311;-68
2022/06/18 07:57:03;;;;;;;10.68;9.77;;;17.60;99.90;;;;;;6001472;29;20279;-68
2022/06/18 08:00:16;;;;;;;10.70;9.85;;;17.60;99.90;;;;;;6001199;29;20347;-68
2022/06/18 08:03:22;;;;;;;11.80;10.55;;;17.70;99.90;;;;;;6001195;29;20303;-68
2022/06/18 08:06:29;;;;;;;10.27;9.35;;;17.80;99.90;;;;;;6001203;29;20287;-68
2022/06/18 08:09:34;;;;;;;10.90;10.10;;;17.90;99.90;;;;;;6001245;29;20316;-68
2022/06/18 08:12:39;;;;;;;11.52;10.43;;;18.00;99.90;;;;;;6001184;29;20542;-68
2022/06/18 08:15:47;;;;;;;11.65;10.50;;;18.10;99.90;;;;;;6001219;29;20299;-69
2022/06/18 08:18:52;;;;;;;11.50;10.35;;;18.10;99.90;;;;;;6000801;29;20303;-67
2022/06/18 08:21:57;;;;;;;10.95;9.80;;;18.20;99.90;;;;;;6000921;29;20507;-67
2022/06/18 08:25:03;;;;;;;16.13;10.35;;;18.20;99.90;;;;;;6000492;29;20328;-68
2022/06/18 08:28:10;;;;;;;11.82;10.23;;;18.20;99.90;;;;;;6000745;29;20306;-67
2022/06/18 08:31:17;;;;;;;12.43;11.15;;;18.20;99.90;;;;;;6001028;29;20279;-67
2022/06/18 08:34:23;;;;;;;12.65;11.32;;;18.20;99.90;;;;;;6000399;29;20337;-68
2022/06/18 08:37:35;;;;;;;11.80;10.27;;;18.20;99.90;;;;;;6000576;29;20299;-67
2022/06/18 08:40:57;;;;;;;10.70;9.80;;;18.10;99.90;;;;;;6000939;29;20279;-68
2022/06/18 08:44:24;;;;;;;11.45;10.52;;;18.10;99.90;;;;;;6000475;29;20303;-68
2022/06/18 08:47:49;;;;;;;14.02;11.25;;;18.20;99.90;;;;;;5984165;29;20307;-68
2022/06/18 08:51:04;;;;;;;11.82;10.63;;;18.10;99.90;;;;;;6000728;29;20279;-68
2022/06/18 08:54:26;;;;;;;11.80;10.50;;;18.10;99.90;;;;;;6000251;29;20312;-68
2022/06/18 08:57:38;;;;;;;15.23;11.45;;;18.20;99.90;;;;;;6000142;29;20299;-68
2022/06/18 09:00:51;;;;;;;11.45;10.35;;;18.20;99.90;;;;;;6000367;29;20279;-68
2022/06/18 09:04:09;;;;;;;11.52;10.43;;;18.20;99.90;;;;;;6001211;29;20299;-68
2022/06/18 09:08:20;;;;;;;12.25;10.35;;;18.20;99.90;;;;;;6004196;29;20287;-68
2022/06/18 09:11:41;;;;;;;11.43;10.35;;;18.20;99.90;;;;;;6004742;29;20271;-68
2022/06/18 09:14:53;;;;;;;12.25;10.70;;;18.10;99.90;;;;;;6004025;29;20307;-68
2022/06/18 09:18:03;;;;;;;11.95;10.57;;;18.10;99.90;;;;;;6003935;29;20307;-68
2022/06/18 09:21:18;;;;;;;14.20;10.35;;;18.20;99.90;;;;;;6004632;29;20307;-68
2022/06/18 09:24:28;;;;;;;13.50;11.20;;;18.20;99.90;;;;;;6004002;29;20539;-68
2022/06/18 09:27:39;;;;;;;13.02;11.23;;;18.20;99.90;;;;;;6003595;29;20590;-68
2022/06/18 09:30:48;;;;;;;12.52;10.68;;;18.20;99.90;;;;;;6004523;29;20275;-68
2022/06/18 09:33:58;;;;;;;10.57;9.65;;;18.10;99.90;;;;;;6003843;29;20307;-68
2022/06/18 09:37:17;;;;;;;11.38;10.25;;;18.00;99.90;;;;;;6003673;29;20295;-68
2022/06/18 09:40:29;;;;;;;11.95;9.93;;;18.10;99.90;;;;;;6004266;29;20280;-68
2022/06/18 09:43:42;;;;;;;10.60;9.50;;;18.10;99.90;;;;;;6003335;29;20299;-68
2022/06/18 09:46:55;;;;;;;9.90;9.05;;;18.20;99.90;;;;;;6004277;29;20284;-68
2022/06/18 09:50:01;;;;;;;9.32;8.48;;;18.20;99.90;;;;;;6003445;29;20610;-68
2022/06/18 09:53:16;;;;;;;8.98;7.75;;;18.30;99.90;;;;;;6003114;29;20347;-68
2022/06/18 09:56:28;;;;;;;9.90;8.90;;;18.40;99.90;;;;;;6003600;29;20303;-68
2022/06/18 09:59:37;;;;;;;11.23;9.10;;;18.40;99.90;;;;;;6003330;29;20499;-68
2022/06/18 10:02:47;;;;;;;8.52;7.93;;;18.40;99.90;;;;;;6003109;29;20315;-68
2022/06/18 10:09:17;;;;;;;9.52;8.60;;;18.30;99.90;;;;;;6003276;29;20307;-68
2022/06/18 10:12:27;;;;;;;9.20;8.40;;;18.20;99.90;;;;;;6002853;29;20315;-69
2022/06/18 10:15:32;;;;;;;8.48;7.78;;;18.20;99.90;;;;;;6002044;29;20284;-67
2022/06/18 10:18:48;;;;;;;9.20;8.10;;;18.20;99.90;;;;;;6002965;29;20307;-67
2022/06/18 10:21:58;;;;;;;8.23;7.72;;;18.40;99.90;;;;;;6002581;29;20493;-67
2022/06/18 10:25:15;;;;;;;9.70;7.88;;;18.30;99.90;;;;;;6002768;29;20307;-68
2022/06/18 10:28:30;;;;;;;7.88;7.35;;;18.40;99.90;;;;;;6002449;29;20307;-67
2022/06/18 10:31:48;;;;;;;8.43;7.63;;;18.60;99.90;;;;;;6003306;29;20299;-67
2022/06/18 10:35:06;;;;;;;8.75;7.95;;;18.60;99.90;;;;;;6002638;29;20307;-70
2022/06/18 10:38:43;;;;;;;8.02;7.05;;;18.70;99.90;;;;;;6002654;29;20303;-69
2022/06/18 10:42:07;;;;;;;8.73;7.35;;;18.80;99.90;;;;;;6002609;29;20283;-69
2022/06/18 10:45:19;;;;;;;8.30;7.60;;;18.90;99.90;;;;;;6002189;29;20279;-68
2022/06/18 10:48:28;;;;;;;9.20;7.55;;;19.00;99.90;;;;;;6002546;29;20306;-69
2022/06/18 10:51:42;;;;;;;7.47;6.78;;;19.20;99.90;;;;;;6002745;29;20442;-68
2022/06/18 10:54:48;;;;;;;7.18;6.68;;;19.30;99.90;;;;;;6002311;29;20307;-69
2022/06/18 10:57:55;;;;;;;7.03;6.35;;;19.30;99.90;;;;;;6001770;29;20307;-69
2022/06/18 11:01:06;;;;;;;7.68;7.10;;;19.10;99.90;;;;;;6002920;29;20279;-68
2022/06/18 11:04:23;;;;;;;7.35;6.78;;;19.10;99.90;;;;;;6001842;29;20298;-68
2022/06/18 11:07:33;;;;;;;7.25;6.75;;;19.10;99.90;;;;;;6001918;29;20303;-69
2022/06/18 11:10:44;;;;;;;8.52;6.65;;;19.10;99.90;;;;;;6002227;29;20554;-68
2022/06/18 11:13:51;;;;;;;7.07;6.53;;;19.10;99.90;;;;;;6002248;29;20303;-69
2022/06/18 11:16:58;;;;;;;6.50;5.90;;;19.10;99.90;;;;;;6002301;29;20620;-69
2022/06/18 11:20:17;;;;;;;7.80;7.03;;;19.20;99.90;;;;;;6001069;29;20303;-69
2022/06/18 11:23:23;;;;;;;7.60;6.90;;;19.30;99.90;;;;;;6001551;29;20307;-69
2022/06/18 11:26:29;;;;;;;10.85;5.68;;;19.40;99.90;;;;;;6001841;29;20279;-69
2022/06/18 11:29:40;;;;;;;6.78;5.82;;;19.40;99.90;;;;;;6001587;29;20621;-68
2022/06/18 11:32:48;;;;;;;6.60;6.00;;;19.40;99.90;;;;;;6001384;29;20590;-69
2022/06/18 11:35:54;;;;;;;13.27;6.95;;;19.40;99.90;;;;;;6001848;29;20316;-69
2022/06/18 11:39:02;;;;;;;12.13;8.02;;;19.30;99.90;;;;;;6001313;29;20326;-68
2022/06/18 11:42:13;;;;;;;12.23;9.18;;;19.30;99.90;;;;;;6001000;29;20279;-69
2022/06/18 11:45:35;;;;;;;8.25;7.28;;;19.20;99.90;;;;;;6001600;29;20275;-69
2022/06/18 11:48:43;;;;;;;10.35;6.20;;;19.00;99.90;;;;;;6001269;29;20307;-69
2022/06/18 11:51:54;;;;;;;6.50;5.85;;;19.00;99.90;;;;;;6001954;29;20467;-68
2022/06/18 11:55:11;;;;;;;14.77;6.25;;;19.20;99.90;;;;;;6001091;29;20303;-69
2022/06/18 11:58:25;;;;;;;14.30;6.80;;;19.30;99.90;;;;;;6001275;29;20315;-69
2022/06/18 12:01:36;;;;;;;9.40;6.07;;;19.60;99.90;;;;;;6001190;29;20280;-68
2022/06/18 12:04:47;;;;;;;6.50;5.55;;;19.70;99.90;;;;;;6001165;29;20304;-69
2022/06/18 12:07:56;;;;;;;5.80;5.22;;;19.80;99.90;;;;;;6000765;29;20643;-69
2022/06/18 12:11:09;;;;;;;7.88;6.00;;;19.70;99.90;;;;;;6001542;29;20287;-69
2022/06/18 12:14:20;;;;;;;6.47;5.93;;;19.70;99.90;;;;;;6000573;29;20302;-68
2022/06/18 12:17:34;;;;;;;7.32;5.43;;;19.60;99.90;;;;;;6000850;29;20319;-69
2022/06/18 12:21:06;;;;;;;6.68;5.95;;;19.60;99.90;;;;;;6001271;29;20689;-69
2022/06/18 12:24:23;;;;;;;9.82;6.22;;;19.40;99.90;;;;;;5993535;29;20465;-68
2022/06/18 12:27:30;;;;;;;7.35;5.85;;;19.50;99.90;;;;;;6000474;29;20398;-69
2022/06/18 12:30:39;;;;;;;6.47;5.88;;;19.50;99.90;;;;;;6001153;29;20275;-69
2022/06/18 12:33:56;;;;;;;10.18;6.13;;;19.50;99.90;;;;;;6000692;29;20566;-68
2022/06/18 12:37:12;;;;;;;9.15;6.03;;;19.40;99.90;;;;;;6001089;29;20279;-69
2022/06/18 12:40:35;;;;;;;8.35;6.85;;;19.40;99.90;;;;;;6003137;29;20447;-69
2022/06/18 12:43:45;;;;;;;9.15;5.57;;;19.40;99.90;;;;;;6004815;29;20299;-69
2022/06/18 12:47:00;;;;;;;9.25;5.43;;;19.20;99.90;;;;;;6005163;29;20466;-69
2022/06/18 12:50:19;;;;;;;5.05;4.63;;;19.30;99.90;;;;;;6004478;29;20275;-69
2022/06/18 12:53:44;;;;;;;14.35;5.20;;;19.30;99.90;;;;;;6004679;29;20312;-69
2022/06/18 12:56:59;;;;;;;5.28;4.93;;;19.40;99.90;;;;;;6004864;29;20299;-69
2022/06/18 13:00:11;;;;;;;5.35;4.85;;;19.40;99.90;;;;;;6003636;29;20303;-69
2022/06/18 13:03:37;;;;;;;5.97;5.30;;;19.50;99.90;;;;;;6004679;29;20299;-68
2022/06/18 13:06:52;;;;;;;5.97;5.47;;;19.40;99.90;;;;;;6004887;29;20279;-69
2022/06/18 13:10:04;;;;;;;6.00;4.57;;;19.40;99.90;;;;;;6004013;29;20466;-68
2022/06/18 13:13:28;;;;;;;5.20;4.50;;;19.40;99.90;;;;;;6004339;29;20306;-69
2022/06/18 13:16:41;;;;;;;6.57;4.38;;;19.60;99.90;;;;;;6004529;29;20275;-69
2022/06/18 13:19:52;;;;;;;4.68;4.22;;;19.90;99.90;;;;;;6003782;29;20315;-69
2022/06/18 13:22:59;;;;;;;6.00;3.83;;;20.10;99.90;;;;;;6004045;29;20299;-68
2022/06/18 13:29:35;;;;;;;3.70;3.08;;;20.30;99.90;;;;;;6003998;29;20602;-68
2022/06/18 13:32:49;;;;;;;6.63;4.15;;;20.30;99.90;;;;;;6003538;29;20302;-68
2022/06/18 13:36:01;;;;;;;3.85;3.25;;;20.30;99.90;;;;;;6003772;29;20279;-68
2022/06/18 13:39:18;;;;;;;3.50;3.40;;;20.40;99.90;;;;;;6003591;29;20307;-67
2022/06/18 13:42:35;;;;;;;3.45;3.00;;;20.70;99.90;;;;;;6003174;29;22318;-68
2022/06/18 13:45:49;;;;;;;3.95;2.92;;;20.90;99.90;;;;;;6004348;29;20275;-67
2022/06/18 13:49:03;;;;;;;2.88;2.78;;;21.00;99.90;;;;;;6003445;29;20320;-67
2022/06/18 13:52:09;;;;;;;3.15;2.90;;;21.20;99.90;;;;;;6002883;29;20283;-68
2022/06/18 13:55:29;;;;;;;8.90;3.00;;;22.20;99.90;;;;;;6003558;29;20279;-68
2022/06/18 13:58:40;;;;;;;3.10;2.90;;;22.30;98.30;;;;;;6003068;29;20312;-68
2022/06/18 14:01:49;;;;;;;3.72;3.25;;;21.70;99.90;;;;;;6003797;29;20554;-69
2022/06/18 14:05:01;;;;;;;7.47;2.40;;;21.80;99.50;;;;;;6003346;29;20299;-68
2022/06/18 14:08:12;;;;;;;3.75;2.58;;;22.20;99.50;;;;;;6003185;29;20310;-68
2022/06/18 14:11:35;;;;;;;3.90;2.63;;;22.60;97.60;;;;;;6003542;29;20275;-68
2022/06/18 14:14:43;;;;;;;2.88;2.60;;;22.40;97.30;;;;;;6003384;29;20482;-68
2022/06/18 14:17:52;;;;;;;2.35;2.20;;;22.70;97.20;;;;;;6002418;29;20299;-68
2022/06/18 14:21:03;;;;;;;4.30;2.50;;;22.60;97.00;;;;;;6002941;29;20315;-68
2022/06/18 14:24:11;;;;;;;2.78;2.30;;;22.40;97.40;;;;;;6002562;29;20610;-68
2022/06/18 14:27:25;;;;;;;2.60;2.40;;;22.30;96.70;;;;;;6002871;29;20280;-68
2022/06/18 14:30:46;;;;;;;4.05;2.13;;;22.40;96.10;;;;;;6002638;29;20283;-68
2022/06/18 14:34:03;;;;;;;2.83;2.60;;;22.40;95.90;;;;;;6002096;29;20490;-68
2022/06/18 14:37:11;;;;;;;3.83;2.33;;;22.40;94.70;;;;;;6002668;29;20279;-69
2022/06/18 14:40:22;;;;;;;3.35;2.20;;;22.40;94.50;;;;;;6002430;29;20590;-68
2022/06/18 14:43:43;;;;;;;4.20;2.60;;;22.60;94.50;;;;;;6002465;29;20303;-68
2022/06/18 14:47:09;;;;;;;3.00;2.90;;;22.70;94.80;;;;;;6002482;29;20300;-68
2022/06/18 14:50:38;;;;;;;2.67;2.17;;;22.20;95.10;;;;;;6002231;29;20288;-68
2022/06/18 14:54:15;;;;;;;3.58;2.60;;;22.80;95.30;;;;;;6001970;29;20302;-68
2022/06/18 14:58:07;;;;;;;2.70;2.50;;;22.60;95.50;;;;;;5967019;29;20279;-68
2022/06/18 15:01:36;;;;;;;3.90;3.22;;;22.50;94.30;;;;;;6001233;29;20315;-68
2022/06/18 15:04:47;;;;;;;3.30;3.00;;;22.60;94.80;;;;;;6001885;29;20328;-68
2022/06/18 15:07:52;;;;;;;2.97;2.78;;;22.60;95.20;;;;;;6001423;29;20486;-68
2022/06/18 15:11:04;;;;;;;2.83;2.63;;;22.70;95.90;;;;;;6001601;29;20275;-68
2022/06/18 15:14:12;;;;;;;2.70;2.60;;;22.50;95.20;;;;;;6001787;29;20678;-68
2022/06/18 15:17:30;;;;;;;2.50;2.40;;;22.40;94.80;;;;;;6001391;29;20283;-68
2022/06/18 15:20:53;;;;;;;5.72;2.70;;;22.60;94.60;;;;;;6001575;29;20355;-68
2022/06/18 15:24:02;;;;;;;2.53;2.30;;;22.80;94.40;;;;;;6001466;29;20303;-68
2022/06/18 15:27:27;;;;;;;2.97;2.78;;;22.50;94.60;;;;;;6001431;29;20303;-69
2022/06/18 15:30:38;;;;;;;3.03;2.28;;;23.50;92.80;;;;;;6002120;29;20287;-68
2022/06/18 15:33:49;;;;;;;4.72;2.45;;;23.20;91.70;;;;;;6001357;29;20299;-68
2022/06/18 15:37:04;;;;;;;3.33;2.47;;;23.80;91.60;;;;;;6001589;29;20279;-68
2022/06/18 15:40:26;;;;;;;2.78;2.58;;;23.70;91.00;;;;;;6000858;29;20303;-69
2022/06/18 15:43:34;;;;;;;2.97;1.83;;;24.10;90.10;;;;;;6000937;29;20306;-68
2022/06/18 15:46:40;;;;;;;2.10;2.00;;;24.10;88.80;;;;;;6001533;29;20275;-68
2022/06/18 15:49:47;;;;;;;2.22;2.13;;;23.80;87.50;;;;;;6001079;29;20323;-68
2022/06/18 15:52:54;;;;;;;4.88;2.25;;;23.80;88.80;;;;;;6000980;29;20315;-69
2022/06/18 15:56:02;;;;;;;3.55;2.25;;;23.60;88.90;;;;;;6001266;29;20283;-69
2022/06/18 15:59:08;;;;;;;1.65;1.63;;;23.50;88.70;;;;;;6000937;29;20303;-68
2022/06/18 16:02:15;;;;;;;3.97;1.80;;;23.50;87.30;;;;;;6000210;29;20484;-69
2022/06/18 16:05:26;;;;;;;3.85;1.77;;;23.40;84.80;;;;;;6000828;29;20465;-69
2022/06/18 16:08:38;;;;;;;1.63;1.63;;;23.20;83.00;;;;;;6000716;29;20315;-68
2022/06/18 16:11:49;;;;;;;1.60;1.60;;;23.20;80.30;;;;;;6001286;29;20275;-68
2022/06/18 16:14:58;;;;;;;2.88;1.90;;;23.10;77.50;;;;;;6000851;29;20311;-68
2022/06/18 16:18:03;;;;;;;2.38;1.58;;;23.10;77.60;;;;;;6000500;29;20302;-68
2022/06/18 16:21:12;;;;;;;2.25;1.58;;;23.20;81.40;;;;;;6000932;29;20314;-68
2022/06/18 16:24:21;;;;;;;2.85;2.00;;;23.00;74.20;;;;;;6000251;29;20315;-68
2022/06/18 16:27:32;;;;;;;4.60;1.70;;;23.10;76.10;;;;;;6000432;29;20499;-68
2022/06/18 16:30:39;;;;;;;1.90;1.80;;;23.00;74.10;;;;;;6001087;29;20578;-68
2022/06/18 16:33:46;;;;;;;1.77;1.33;;;23.00;71.30;;;;;;6000144;29;20626;-68
2022/06/18 16:37:16;;;;;;;1.80;1.40;;;23.00;67.40;;;;;;6000474;29;20351;-67
2022/06/18 16:40:24;;;;;;;3.15;1.80;;;22.90;67.00;;;;;;5999097;29;20282;-68
2022/06/18 16:43:30;;;;;;;4.47;2.00;;;22.80;66.90;;;;;;5999824;29;20302;-68
2022/06/18 16:46:36;;;;;;;2.10;1.58;;;22.80;64.40;;;;;;6000097;29;20460;-68
2022/06/18 16:49:42;;;;;;;2.13;1.88;;;22.90;65.70;;;;;;5999830;29;20298;-68
2022/06/18 16:52:52;;;;;;;3.08;2.28;;;22.90;68.80;;;;;;6000518;29;20310;-68